createdAt,value
2018-08-11T00:01:56.301Z,1.00
2018-08-11T00:04:26.958Z,1.00
2018-08-11T00:06:57.694Z,0.90
2018-08-11T00:09:28.323Z,0.97
2018-08-11T00:11:59.040Z,0.80
2018-08-11T00:14:29.967Z,0.80
2018-08-11T00:17:00.750Z,1.00
2018-08-11T00:19:31.463Z,0.90
2018-08-11T00:22:02.209Z,0.70
2018-08-11T00:24:32.973Z,1.10
2018-08-11T00:27:03.757Z,0.97
2018-08-11T00:29:34.499Z,1.00
2018-08-11T00:32:05.195Z,1.00
2018-08-11T00:34:35.838Z,0.97
2018-08-11T00:37:06.808Z,1.03
2018-08-11T00:39:37.558Z,1.10
2018-08-11T00:42:08.270Z,0.90
2018-08-11T00:44:39.011Z,0.90
2018-08-11T00:47:09.676Z,1.03
2018-08-11T00:49:40.328Z,1.30
2018-08-11T00:52:11.028Z,1.00
2018-08-11T00:54:41.989Z,1.07
2018-08-11T00:57:12.666Z,1.00
2018-08-11T00:59:43.390Z,1.07
2018-08-11T01:02:14.161Z,1.10
2018-08-11T01:04:44.787Z,1.23
2018-08-11T01:07:15.415Z,1.50
2018-08-11T01:09:46.262Z,1.50
2018-08-11T01:12:16.906Z,1.43
2018-08-11T01:14:47.678Z,1.30
2018-08-11T01:17:18.317Z,1.43
2018-08-11T01:19:48.973Z,1.30
2018-08-11T01:22:19.713Z,0.90
2018-08-11T01:24:50.381Z,0.90
2018-08-11T01:27:21.087Z,0.80
2018-08-11T01:29:51.986Z,0.70
2018-08-11T01:32:22.664Z,0.70
2018-08-11T01:34:53.374Z,0.83
2018-08-11T01:37:23.989Z,1.00
2018-08-11T01:39:54.678Z,0.80
2018-08-11T01:42:25.321Z,0.90
2018-08-11T01:44:56.040Z,0.90
2018-08-11T01:47:26.827Z,0.90
2018-08-11T01:49:57.665Z,0.70
2018-08-11T01:52:28.349Z,0.80
2018-08-11T01:54:59.002Z,1.10
2018-08-11T01:57:29.668Z,1.30
2018-08-11T02:00:00.359Z,1.13
2018-08-11T02:02:31.078Z,1.07
2018-08-11T02:05:01.784Z,1.20
2018-08-11T02:07:32.510Z,1.27
2018-08-11T02:10:03.155Z,1.67
2018-08-11T02:12:33.886Z,1.57
2018-08-11T02:15:05.647Z,1.30
2018-08-11T02:17:36.406Z,1.40
2018-08-11T02:20:10.664Z,1.33
2018-08-11T02:22:42.042Z,1.00
2018-08-11T02:25:12.770Z,0.93
2018-08-11T02:27:43.562Z,1.30
2018-08-11T02:30:16.275Z,1.30
2018-08-11T02:32:47.099Z,1.20
2018-08-11T02:35:17.770Z,1.10
2018-08-11T02:37:48.573Z,1.10
2018-08-11T02:40:19.235Z,1.40
2018-08-11T02:42:49.903Z,1.23
2018-08-11T02:45:20.562Z,1.30
2018-08-11T02:47:51.220Z,1.10
2018-08-11T02:50:21.910Z,1.10
2018-08-11T02:52:52.600Z,1.50
2018-08-11T02:55:23.253Z,1.30
2018-08-11T02:57:53.890Z,1.50
2018-08-11T03:00:24.558Z,1.80
2018-08-11T03:02:55.274Z,1.80
2018-08-11T03:05:25.958Z,1.50
2018-08-11T03:07:56.668Z,1.87
2018-08-11T03:10:27.288Z,1.87
2018-08-11T03:12:57.939Z,2.00
2018-08-11T03:15:28.650Z,2.63
2018-08-11T03:17:59.312Z,2.70
2018-08-11T03:20:29.968Z,2.90
2018-08-11T03:23:00.617Z,4.30
2018-08-11T03:25:31.297Z,5.23
2018-08-11T03:28:01.985Z,5.67
2018-08-11T03:30:32.707Z,6.00
2018-08-11T03:33:03.399Z,5.90
2018-08-11T03:35:34.106Z,5.37
2018-08-11T03:38:04.718Z,6.60
2018-08-11T03:40:35.418Z,6.57
2018-08-11T03:43:06.032Z,6.73
2018-08-11T03:45:36.740Z,5.70
2018-08-11T03:48:07.371Z,5.33
2018-08-11T03:50:38.045Z,4.90
2018-08-11T03:53:08.697Z,3.80
2018-08-11T03:55:39.371Z,3.60
2018-08-11T03:58:10.088Z,3.10
2018-08-11T04:00:40.774Z,3.37
2018-08-11T04:03:12.202Z,3.30
2018-08-11T04:05:42.874Z,2.70
2018-08-11T04:08:13.585Z,2.43
2018-08-11T04:10:44.359Z,2.70
2018-08-11T04:13:15.054Z,2.67
2018-08-11T04:15:45.685Z,2.27
2018-08-11T04:18:16.334Z,2.40
2018-08-11T04:20:46.922Z,2.13
2018-08-11T04:23:17.583Z,2.00
2018-08-11T04:25:48.230Z,2.07
2018-08-11T04:28:18.857Z,2.00
2018-08-11T04:30:49.528Z,1.97
2018-08-11T04:33:20.332Z,2.20
2018-08-11T04:35:50.940Z,1.80
2018-08-11T04:38:21.557Z,2.03
2018-08-11T04:40:52.233Z,1.53
2018-08-11T04:43:22.855Z,1.90
2018-08-11T04:45:53.490Z,1.80
2018-08-11T04:48:24.136Z,1.80
2018-08-11T04:50:54.807Z,2.10
2018-08-11T04:53:25.528Z,1.93
2018-08-11T04:55:56.246Z,2.17
2018-08-11T04:58:26.990Z,1.93
2018-08-11T05:00:57.604Z,2.30
2018-08-11T05:03:28.240Z,2.43
2018-08-11T05:05:58.999Z,2.20
2018-08-11T05:08:29.717Z,2.70
2018-08-11T05:11:00.351Z,2.47
2018-08-11T05:13:31.201Z,2.57
2018-08-11T05:16:02.008Z,3.50
2018-08-11T05:18:32.783Z,3.50
2018-08-11T05:21:03.411Z,4.30
2018-08-11T05:23:34.099Z,4.87
2018-08-11T05:26:04.809Z,5.50
2018-08-11T05:28:35.514Z,5.20
2018-08-11T05:31:06.246Z,6.33
2018-08-11T05:33:36.923Z,6.03
2018-08-11T05:36:08.262Z,7.10
2018-08-11T05:38:38.915Z,7.33
2018-08-11T05:41:09.601Z,8.67
2018-08-11T05:43:40.541Z,9.23
2018-08-11T05:46:11.246Z,8.93
2018-08-11T05:48:42.031Z,10.70
2018-08-11T05:51:12.676Z,12.50
2018-08-11T05:53:43.297Z,11.33
2018-08-11T05:56:14.016Z,11.90
2018-08-11T05:58:44.666Z,12.47
2018-08-11T06:01:15.355Z,11.97
2018-08-11T06:03:46.080Z,12.50
2018-08-11T06:06:16.742Z,13.63
2018-08-11T06:08:47.456Z,13.70
2018-08-11T06:11:18.079Z,13.33
2018-08-11T06:13:48.802Z,13.73
2018-08-11T06:16:19.435Z,14.07
2018-08-11T06:18:50.081Z,13.30
2018-08-11T06:21:20.846Z,14.07
2018-08-11T06:23:51.608Z,13.40
2018-08-11T06:26:22.275Z,13.20
2018-08-11T06:28:52.951Z,13.23
2018-08-11T06:31:23.693Z,13.27
2018-08-11T06:33:54.350Z,12.97
2018-08-11T06:36:25.029Z,13.17
2018-08-11T06:38:55.697Z,12.33
2018-08-11T06:41:26.408Z,12.30
2018-08-11T06:43:57.103Z,12.03
2018-08-11T06:46:27.745Z,12.50
2018-08-11T06:48:58.437Z,12.97
2018-08-11T06:51:29.132Z,13.10
2018-08-11T06:53:59.829Z,12.60
2018-08-11T06:56:30.489Z,13.20
2018-08-11T06:59:01.162Z,13.23
2018-08-11T07:01:31.851Z,11.77
2018-08-11T07:04:02.559Z,10.33
2018-08-11T07:06:33.278Z,10.17
2018-08-11T07:09:03.970Z,11.53
2018-08-11T07:11:34.786Z,10.43
2018-08-11T07:14:05.661Z,10.43
2018-08-11T07:16:36.687Z,10.50
2018-08-11T07:19:07.570Z,9.90
2018-08-11T07:21:38.155Z,10.23
2018-08-11T07:24:08.915Z,8.23
2018-08-11T07:26:39.572Z,6.50
2018-08-11T07:29:10.287Z,5.87
2018-08-11T07:31:40.951Z,5.00
2018-08-11T07:34:11.603Z,4.53
2018-08-11T07:36:42.350Z,4.40
2018-08-11T07:39:12.951Z,4.63
2018-08-11T07:41:43.593Z,4.00
2018-08-11T07:44:14.257Z,4.30
2018-08-11T07:46:44.976Z,4.07
2018-08-11T07:49:15.632Z,3.60
2018-08-11T07:51:46.273Z,3.90
2018-08-11T07:54:16.922Z,3.27
2018-08-11T07:56:47.546Z,2.83
2018-08-11T07:59:18.208Z,3.00
2018-08-11T08:01:48.857Z,2.77
2018-08-11T08:04:19.616Z,2.77
2018-08-11T08:06:50.186Z,2.53
2018-08-11T08:09:20.903Z,2.10
2018-08-11T08:11:51.510Z,2.27
2018-08-11T08:14:22.251Z,2.10
2018-08-11T08:16:52.955Z,2.07
2018-08-11T08:19:23.674Z,1.90
2018-08-11T08:21:54.310Z,1.73
2018-08-11T08:24:24.997Z,1.80
2018-08-11T08:26:55.717Z,1.90
2018-08-11T08:29:26.409Z,1.90
2018-08-11T08:31:57.146Z,1.70
2018-08-11T08:34:27.788Z,1.90
2018-08-11T08:36:58.448Z,1.27
2018-08-11T08:39:29.104Z,1.50
2018-08-11T08:41:59.837Z,1.50
2018-08-11T08:44:30.470Z,1.50
2018-08-11T08:47:01.408Z,1.57
2018-08-11T08:49:32.152Z,1.40
2018-08-11T08:52:17.417Z,1.30
2018-08-11T08:54:48.456Z,1.30
2018-08-11T08:57:19.089Z,1.40
2018-08-11T08:59:49.745Z,1.47
2018-08-11T09:02:20.451Z,1.27
2018-08-11T09:04:51.191Z,1.40
2018-08-11T09:07:21.807Z,1.50
2018-08-11T09:09:52.534Z,1.43
2018-08-11T09:12:23.246Z,1.40
2018-08-11T09:14:54.063Z,1.50
2018-08-11T09:17:24.672Z,1.20
2018-08-11T09:19:55.380Z,1.53
2018-08-11T09:22:26.064Z,1.43
2018-08-11T09:24:56.717Z,1.17
2018-08-11T09:27:27.332Z,1.17
2018-08-11T09:29:58.147Z,1.30
2018-08-11T09:32:28.860Z,1.37
2018-08-11T09:34:59.745Z,1.40
2018-08-11T09:37:30.558Z,1.53
2018-08-11T09:40:01.198Z,1.40
2018-08-11T09:42:31.870Z,1.20
2018-08-11T09:45:02.520Z,1.40
2018-08-11T09:47:33.222Z,1.17
2018-08-11T09:50:03.944Z,1.20
2018-08-11T09:52:34.942Z,1.30
2018-08-11T09:55:05.635Z,1.50
2018-08-11T09:57:36.567Z,1.50
2018-08-11T10:00:09.370Z,1.27
2018-08-11T10:02:40.334Z,1.60
2018-08-11T10:05:11.070Z,1.40
2018-08-11T10:07:41.678Z,1.30
2018-08-11T10:10:12.335Z,1.30
2018-08-11T10:12:43.398Z,1.33
2018-08-11T10:15:14.044Z,1.20
2018-08-11T10:17:44.775Z,1.10
2018-08-11T10:20:15.390Z,1.27
2018-08-11T10:22:46.055Z,1.30
2018-08-11T10:25:16.695Z,1.13
2018-08-11T10:27:47.419Z,1.27
2018-08-11T10:30:18.035Z,1.20
2018-08-11T10:32:48.702Z,1.40
2018-08-11T10:35:19.318Z,1.00
2018-08-11T10:37:50.003Z,1.20
2018-08-11T10:40:20.750Z,1.00
2018-08-11T10:42:51.339Z,1.13
2018-08-11T10:45:22.056Z,1.20
2018-08-11T10:47:52.794Z,1.20
2018-08-11T10:50:23.444Z,1.37
2018-08-11T10:52:54.108Z,1.10
2018-08-11T10:55:24.765Z,1.30
2018-08-11T10:57:55.453Z,1.13
2018-08-11T11:00:26.108Z,1.43
2018-08-11T11:02:56.818Z,1.03
2018-08-11T11:05:27.470Z,1.17
2018-08-11T11:07:58.146Z,0.90
2018-08-11T11:10:28.765Z,0.97
2018-08-11T11:12:59.481Z,1.20
2018-08-11T11:15:30.108Z,1.40
2018-08-11T11:18:00.800Z,1.20
2018-08-11T11:20:31.484Z,1.20
2018-08-11T11:23:02.390Z,1.07
2018-08-11T11:25:33.047Z,1.60
2018-08-11T11:28:03.679Z,1.00
2018-08-11T11:30:34.269Z,1.40
2018-08-11T11:33:04.955Z,1.43
2018-08-11T11:35:35.616Z,1.03
2018-08-11T11:38:06.372Z,1.50
2018-08-11T11:40:37.018Z,1.50
2018-08-11T11:43:07.722Z,0.93
2018-08-11T11:45:38.405Z,1.20
2018-08-11T11:48:09.038Z,1.17
2018-08-11T11:50:39.662Z,1.13
2018-08-11T11:53:10.291Z,1.00
2018-08-11T11:55:40.926Z,1.30
2018-08-11T11:58:11.614Z,1.07
2018-08-11T12:00:42.270Z,1.00
2018-08-11T12:03:12.909Z,1.00
2018-08-11T12:05:43.683Z,1.00
2018-08-11T12:08:14.236Z,0.87
2018-08-11T12:10:44.901Z,0.80
2018-08-11T12:13:15.647Z,1.10
2018-08-11T12:15:46.324Z,0.90
2018-08-11T12:18:17.055Z,1.00
2018-08-11T12:20:47.694Z,0.93
2018-08-11T12:23:18.619Z,1.20
2018-08-11T12:25:49.281Z,1.00
2018-08-11T12:28:19.951Z,1.10
2018-08-11T12:31:21.734Z,1.10
2018-08-11T12:33:52.453Z,0.90
2018-08-11T12:36:23.079Z,0.80
2018-08-11T12:38:54.383Z,0.67
2018-08-11T12:41:25.048Z,0.90
2018-08-11T12:43:55.695Z,0.80
2018-08-11T12:46:26.342Z,0.90
2018-08-11T12:48:56.995Z,0.97
2018-08-11T12:51:27.607Z,0.93
2018-08-11T12:53:58.248Z,1.20
2018-08-11T12:56:28.840Z,0.73
2018-08-11T12:58:59.618Z,1.00
2018-08-11T13:01:30.394Z,0.90
2018-08-11T13:04:01.110Z,4.13
2018-08-11T13:06:31.800Z,5.23
2018-08-11T13:09:02.435Z,0.93
2018-08-11T13:11:33.126Z,1.17
2018-08-11T13:14:03.892Z,0.80
2018-08-11T13:16:34.582Z,0.90
2018-08-11T13:19:05.183Z,1.00
2018-08-11T13:21:36.075Z,0.70
2018-08-11T13:24:06.844Z,0.70
2018-08-11T13:26:37.457Z,1.40
2018-08-11T13:29:08.220Z,0.67
2018-08-11T13:31:38.956Z,1.00
2018-08-11T13:34:09.608Z,0.83
2018-08-11T13:36:40.302Z,0.87
2018-08-11T13:39:11.745Z,0.87
2018-08-11T13:41:47.132Z,1.23
2018-08-11T13:44:18.911Z,0.97
2018-08-11T13:46:49.582Z,1.10
2018-08-11T13:49:20.219Z,1.20
2018-08-11T13:51:50.847Z,1.07
2018-08-11T13:54:21.568Z,1.10
2018-08-11T13:56:52.284Z,1.23
2018-08-11T13:59:22.923Z,0.90
2018-08-11T14:01:53.593Z,1.10
2018-08-11T14:04:24.305Z,1.77
2018-08-11T14:06:54.935Z,1.20
2018-08-11T14:09:25.568Z,1.37
2018-08-11T14:11:56.193Z,1.50
2018-08-11T14:14:26.799Z,1.30
2018-08-11T14:16:57.443Z,1.13
2018-08-11T14:19:28.122Z,1.20
2018-08-11T14:21:58.820Z,1.10
2018-08-11T14:24:29.542Z,1.00
2018-08-11T14:27:00.198Z,1.70
2018-08-11T14:29:30.867Z,1.53
2018-08-11T14:32:01.530Z,1.23
2018-08-11T14:34:32.354Z,1.30
2018-08-11T14:37:02.989Z,1.17
2018-08-11T14:39:33.703Z,1.20
2018-08-11T14:42:04.547Z,1.20
2018-08-11T14:44:35.358Z,1.23
2018-08-11T14:47:06.056Z,1.53
2018-08-11T14:49:36.753Z,1.20
2018-08-11T14:52:07.603Z,1.40
2018-08-11T14:54:38.381Z,1.30
2018-08-11T14:57:09.031Z,1.50
2018-08-11T14:59:39.819Z,2.53
2018-08-11T15:02:10.467Z,1.70
2018-08-11T15:04:41.154Z,1.47
2018-08-11T15:07:11.797Z,1.53
2018-08-11T15:09:42.521Z,1.73
2018-08-11T15:12:13.212Z,2.40
2018-08-11T15:14:43.871Z,2.07
2018-08-11T15:17:14.592Z,2.10
2018-08-11T15:19:45.256Z,1.50
2018-08-11T15:22:15.890Z,1.47
2018-08-11T15:24:46.554Z,1.40
2018-08-11T15:27:17.178Z,2.20
2018-08-11T15:29:47.869Z,2.03
2018-08-11T15:32:18.601Z,1.63
2018-08-11T15:34:50.160Z,2.10
2018-08-11T15:37:20.889Z,1.90
2018-08-11T15:39:51.530Z,1.40
2018-08-11T15:42:22.184Z,1.80
2018-08-11T15:44:52.823Z,1.43
2018-08-11T15:47:23.452Z,1.50
2018-08-11T15:49:54.119Z,1.67
2018-08-11T15:52:24.797Z,1.40
2018-08-11T15:54:55.461Z,1.60
2018-08-11T15:57:26.098Z,1.60
2018-08-11T15:59:56.779Z,1.90
2018-08-11T16:02:27.431Z,1.70
2018-08-11T16:04:58.085Z,1.77
2018-08-11T16:07:28.809Z,1.50
2018-08-11T16:09:59.431Z,1.60
2018-08-11T16:12:30.090Z,1.50
2018-08-11T16:15:00.708Z,1.43
2018-08-11T16:17:31.479Z,1.57
2018-08-11T16:20:02.092Z,1.60
2018-08-11T16:22:32.793Z,1.60
2018-08-11T16:25:03.564Z,1.57
2018-08-11T16:27:34.246Z,1.73
2018-08-11T16:30:05.591Z,1.50
2018-08-11T16:32:36.288Z,1.50
2018-08-11T16:35:06.972Z,1.50
2018-08-11T16:37:38.150Z,1.47
2018-08-11T16:40:09.392Z,1.07
2018-08-11T16:42:39.980Z,1.50
2018-08-11T16:45:10.629Z,1.50
2018-08-11T16:47:41.315Z,2.13
2018-08-11T16:50:12.027Z,1.80
2018-08-11T16:52:42.714Z,1.60
2018-08-11T16:55:13.477Z,1.80
2018-08-11T16:57:44.132Z,1.47
2018-08-11T17:00:14.783Z,1.50
2018-08-11T17:02:45.509Z,1.50
2018-08-11T17:05:16.165Z,1.90
2018-08-11T17:07:46.828Z,2.13
2018-08-11T17:10:17.434Z,2.20
2018-08-11T17:12:48.199Z,2.10
2018-08-11T17:15:18.871Z,2.17
2018-08-11T17:17:49.435Z,1.97
2018-08-11T17:20:20.061Z,1.83
2018-08-11T17:22:50.712Z,1.60
2018-08-11T17:25:21.396Z,1.73
2018-08-11T17:27:52.063Z,1.60
2018-08-11T17:30:22.689Z,2.10
2018-08-11T17:32:53.342Z,2.10
2018-08-11T17:35:24.032Z,1.87
2018-08-11T17:37:54.637Z,1.57
2018-08-11T17:40:25.296Z,1.87
2018-08-11T17:42:56.071Z,1.90
2018-08-11T17:45:26.703Z,1.90
2018-08-11T17:47:57.409Z,2.23
2018-08-11T17:50:28.049Z,1.60
2018-08-11T17:52:58.771Z,1.40
2018-08-11T17:55:29.458Z,1.50
2018-08-11T17:58:00.126Z,1.70
2018-08-11T18:00:30.810Z,1.53
2018-08-11T18:03:01.430Z,1.40
2018-08-11T18:05:32.114Z,1.17
2018-08-11T18:08:02.801Z,1.27
2018-08-11T18:10:33.517Z,1.40
2018-08-11T18:13:04.227Z,1.50
2018-08-11T18:15:34.870Z,1.20
2018-08-11T18:18:05.561Z,1.43
2018-08-11T18:20:36.232Z,1.30
2018-08-11T18:23:07.629Z,1.47
2018-08-11T18:25:38.305Z,1.20
2018-08-11T18:28:08.964Z,1.60
2018-08-11T18:30:39.706Z,1.60
2018-08-11T18:33:10.437Z,1.30
2018-08-11T18:35:41.121Z,1.13
2018-08-11T18:38:11.881Z,1.30
2018-08-11T18:40:42.515Z,1.60
2018-08-11T18:43:13.234Z,1.40
2018-08-11T18:45:43.856Z,1.60
2018-08-11T18:48:14.525Z,1.50
2018-08-11T18:50:45.247Z,1.90
2018-08-11T18:53:15.875Z,1.70
2018-08-11T18:55:46.560Z,1.60
2018-08-11T18:58:17.216Z,1.57
2018-08-11T19:00:47.958Z,1.70
2018-08-11T19:03:18.607Z,1.70
2018-08-11T19:05:49.398Z,1.67
2018-08-11T19:08:20.075Z,1.40
2018-08-11T19:10:50.804Z,1.80
2018-08-11T19:13:21.500Z,1.77
2018-08-11T19:15:52.192Z,1.70
2018-08-11T19:18:22.946Z,1.80
2018-08-11T19:20:53.639Z,1.80
2018-08-11T19:23:24.296Z,2.00
2018-08-11T19:25:55.074Z,1.70
2018-08-11T19:28:25.782Z,2.23
2018-08-11T19:30:56.484Z,1.90
2018-08-11T19:33:27.095Z,2.30
2018-08-11T19:35:57.812Z,2.20
2018-08-11T19:38:28.488Z,2.30
2018-08-11T19:40:59.271Z,1.80
2018-08-11T19:43:29.985Z,1.77
2018-08-11T19:46:00.841Z,1.73
2018-08-11T19:48:31.466Z,1.73
2018-08-11T19:51:02.206Z,1.60
2018-08-11T19:53:32.867Z,1.70
2018-08-11T19:56:04.037Z,2.03
2018-08-11T19:58:34.631Z,1.67
2018-08-11T20:01:05.398Z,1.60
2018-08-11T20:03:36.119Z,1.50
2018-08-11T20:06:06.979Z,1.90
2018-08-11T20:08:37.659Z,1.70
2018-08-11T20:11:08.353Z,1.60
2018-08-11T20:13:39.046Z,1.70
2018-08-11T20:16:09.668Z,2.10
2018-08-11T20:18:40.406Z,2.00
2018-08-11T20:21:11.095Z,1.70
2018-08-11T20:23:41.885Z,1.90
2018-08-11T20:26:12.518Z,1.67
2018-08-11T20:28:43.227Z,1.77
2018-08-11T20:31:13.913Z,1.63
2018-08-11T20:33:44.629Z,1.83
2018-08-11T20:36:15.350Z,1.90
2018-08-11T20:38:46.064Z,2.07
2018-08-11T20:41:16.799Z,1.80
2018-08-11T20:43:47.544Z,2.10
2018-08-11T20:46:18.295Z,2.20
2018-08-11T20:48:49.007Z,1.90
2018-08-11T20:51:19.772Z,1.80
2018-08-11T20:53:50.478Z,1.50
2018-08-11T20:56:21.191Z,1.70
2018-08-11T20:58:51.923Z,1.70
2018-08-11T21:01:22.579Z,1.60
2018-08-11T21:03:53.341Z,1.83
2018-08-11T21:06:24.004Z,1.60
2018-08-11T21:08:54.859Z,1.50
2018-08-11T21:11:25.549Z,1.50
2018-08-11T21:13:56.280Z,1.60
2018-08-11T21:16:27.001Z,1.30
2018-08-11T21:18:57.704Z,1.13
2018-08-11T21:21:28.373Z,1.50
2018-08-11T21:23:59.130Z,1.50
2018-08-11T21:26:29.960Z,1.27
2018-08-11T21:29:00.803Z,1.43
2018-08-11T21:31:31.496Z,1.60
2018-08-11T21:34:02.214Z,1.50
2018-08-11T21:36:32.948Z,1.67
2018-08-11T21:39:03.694Z,1.70
2018-08-11T21:41:34.417Z,1.40
2018-08-11T21:44:05.164Z,1.37
2018-08-11T21:47:06.771Z,1.20
2018-08-11T21:49:37.489Z,1.20
2018-08-11T21:52:08.270Z,1.47
2018-08-11T21:54:38.934Z,1.30
2018-08-11T21:57:09.705Z,1.13
2018-08-11T21:59:40.397Z,1.50
2018-08-11T22:02:11.175Z,1.30
2018-08-11T22:04:41.826Z,1.30
2018-08-11T22:07:12.459Z,1.50
2018-08-11T22:09:43.149Z,1.50
2018-08-11T22:12:13.916Z,1.70
2018-08-11T22:14:44.580Z,1.50
2018-08-11T22:17:15.325Z,1.70
2018-08-11T22:19:45.996Z,1.60
2018-08-11T22:22:16.650Z,1.63
2018-08-11T22:24:47.329Z,1.80
2018-08-11T22:27:17.951Z,1.80
2018-08-11T22:29:48.704Z,1.60
2018-08-11T22:32:19.466Z,1.63
2018-08-11T22:34:50.196Z,1.70
2018-08-11T22:37:20.862Z,1.60
2018-08-11T22:39:51.558Z,2.10
2018-08-11T22:42:22.269Z,2.13
2018-08-11T22:44:53.060Z,2.37
2018-08-11T22:47:23.897Z,2.63
2018-08-11T22:49:54.466Z,2.60
2018-08-11T22:52:25.191Z,2.70
2018-08-11T22:54:55.981Z,3.10
2018-08-11T22:57:26.726Z,2.90
2018-08-11T22:59:57.472Z,2.30
2018-08-11T23:02:28.184Z,2.70
2018-08-11T23:04:58.873Z,2.70
2018-08-11T23:07:29.497Z,2.80
2018-08-11T23:10:00.194Z,2.63
2018-08-11T23:12:30.901Z,3.20
2018-08-11T23:15:01.580Z,2.83
2018-08-11T23:17:32.337Z,2.77
2018-08-11T23:20:03.076Z,3.00
2018-08-11T23:22:33.934Z,3.00
2018-08-11T23:25:05.548Z,2.80
2018-08-11T23:27:36.593Z,3.30
2018-08-11T23:30:10.532Z,3.20
2018-08-11T23:32:42.174Z,3.30
2018-08-11T23:35:13.590Z,3.30
2018-08-11T23:37:44.259Z,2.97
2018-08-11T23:40:14.975Z,3.00
2018-08-11T23:42:45.679Z,3.00
2018-08-11T23:45:17.038Z,3.20
2018-08-11T23:47:47.762Z,3.10
2018-08-11T23:50:18.423Z,3.33
2018-08-11T23:52:49.131Z,2.90
2018-08-11T23:55:19.857Z,3.00
2018-08-11T23:57:50.548Z,2.83
